Time;durP1;ratioP1;P1;durP2;ratioP2;P2;SDS_P1;SDS_P2;PMS_P1;PMS_P2;Temp;Humidity;BMP_temperature;BMP_pressure;BME280_temperature;BME280_humidity;BME280_pressure;Samples;Min_cycle;Max_cycle;Signal;HPM_P1;HPM_P2
2023/03/03 00:00:17;;;;;;;3.83;0.10;;;;;;;5.39;100.00;101965.19;5043346;28;20030;-55
2023/03/03 00:02:42;;;;;;;0.90;0.13;;;;;;;5.39;100.00;101963.41;5048994;28;20025;-54
2023/03/03 00:05:09;;;;;;;3.25;0.00;;;;;;;5.31;100.00;101957.09;5046310;28;20295;-52
2023/03/03 00:07:34;;;;;;;3.53;0.30;;;;;;;5.18;100.00;101968.56;5047272;28;20037;-53
2023/03/03 00:10:00;;;;;;;0.80;0.22;;;;;;;5.20;100.00;101961.38;5057792;28;20044;-50
2023/03/03 00:12:28;;;;;;;0.30;0.10;;;;;;;5.25;100.00;101961.88;5046036;28;20033;-52
2023/03/03 00:14:53;;;;;;;2.08;0.30;;;;;;;5.29;100.00;101964.25;5048129;28;20047;-53
2023/03/03 00:17:25;;;;;;;0.43;0.03;;;;;;;5.38;100.00;101971.44;5054005;28;20090;-53
2023/03/03 00:19:50;;;;;;;0.50;0.05;;;;;;;5.42;100.00;101965.81;5048986;28;20353;-53
2023/03/03 00:22:39;;;;;;;2.88;0.10;;;;;;;5.45;100.00;101968.19;5044851;28;20474;-53
2023/03/03 00:25:33;;;;;;;0.28;0.13;;;;;;;5.49;100.00;101965.31;5058548;28;20029;-53
2023/03/03 00:28:17;;;;;;;5.15;0.50;;;;;;;5.48;100.00;101964.50;5043972;28;20043;-54
2023/03/03 00:30:43;;;;;;;2.50;0.13;;;;;;;5.52;100.00;101967.69;5044994;28;20033;-54
2023/03/03 00:33:32;;;;;;;0.68;0.57;;;;;;;5.51;100.00;101963.41;5044695;28;20036;-54
2023/03/03 00:36:27;;;;;;;7.68;0.40;;;;;;;5.47;100.00;101970.69;5053163;28;20041;-53
2023/03/03 00:38:53;;;;;;;2.28;0.25;;;;;;;5.43;100.00;101970.09;5037034;28;20048;-51
2023/03/03 00:41:25;;;;;;;0.30;0.10;;;;;;;5.54;100.00;101971.88;5042854;28;20112;-52
2023/03/03 00:43:51;;;;;;;3.83;0.20;;;;;;;5.68;100.00;101970.81;5047521;28;20396;-50
2023/03/03 00:46:19;;;;;;;4.38;0.10;;;;;;;5.67;100.00;101969.13;5045758;28;20028;-54
2023/03/03 00:48:45;;;;;;;5.72;0.10;;;;;;;5.66;100.00;101973.56;5046325;28;20029;-55
2023/03/03 00:51:23;;;;;;;0.82;0.30;;;;;;;5.64;100.00;101980.72;5047264;28;20036;-54
2023/03/03 00:53:49;;;;;;;0.55;0.38;;;;;;;5.71;100.00;101975.00;5042868;28;20040;-53
2023/03/03 00:56:14;;;;;;;0.60;0.60;;;;;;;5.67;100.00;101969.94;5048125;28;20021;-51
2023/03/03 00:58:40;;;;;;;0.35;0.35;;;;;;;5.56;100.00;101977.03;5049295;28;20025;-54
2023/03/03 01:01:06;;;;;;;3.60;0.15;;;;;;;5.58;100.00;101980.38;5045935;28;20029;-50
2023/03/03 01:03:31;;;;;;;1.92;0.17;;;;;;;5.56;100.00;101977.03;5043650;28;20025;-51
2023/03/03 01:05:56;;;;;;;1.08;0.13;;;;;;;5.54;100.00;101982.41;5049250;28;20433;-51
2023/03/03 01:08:22;;;;;;;3.00;0.32;;;;;;;5.60;100.00;101975.81;5049578;28;20471;-49
2023/03/03 01:10:53;;;;;;;0.22;0.22;;;;;;;5.64;100.00;101974.63;5054674;28;20553;-50
2023/03/03 01:13:21;;;;;;;1.98;0.10;;;;;;;5.78;100.00;101984.03;5049360;28;20044;-49
2023/03/03 01:15:46;;;;;;;0.35;0.10;;;;;;;5.82;100.00;101988.94;5046567;28;20041;-54
2023/03/03 01:18:13;;;;;;;0.70;0.50;;;;;;;5.86;100.00;101981.63;5050133;28;20042;-49
2023/03/03 01:20:38;;;;;;;5.30;0.73;;;;;;;5.84;100.00;101984.41;5061304;28;20033;-52
2023/03/03 01:23:04;;;;;;;0.13;0.10;;;;;;;5.83;100.00;101995.88;5042831;28;20048;-51
2023/03/03 01:25:29;;;;;;;0.50;0.28;;;;;;;5.83;100.00;102001.13;5040879;28;20035;-52
2023/03/03 01:27:55;;;;;;;1.65;0.50;;;;;;;5.82;100.00;101991.56;5047404;28;20128;-49
2023/03/03 01:30:21;;;;;;;0.10;0.10;;;;;;;5.87;100.00;101997.31;5049301;28;20032;-51
2023/03/03 01:32:46;;;;;;;2.17;0.20;;;;;;;5.86;100.00;102000.91;5045422;28;20025;-53
2023/03/03 01:35:11;;;;;;;3.35;0.40;;;;;;;5.81;100.00;101997.81;5049288;28;20094;-52
2023/03/03 01:37:37;;;;;;;0.38;0.32;;;;;;;5.77;100.00;102001.63;5047160;28;20108;-54
2023/03/03 01:40:04;;;;;;;0.52;0.15;;;;;;;5.88;100.00;101996.34;5045213;28;20056;-51
2023/03/03 01:42:30;;;;;;;0.65;0.25;;;;;;;5.87;100.00;102001.75;5041260;28;20944;-52
2023/03/03 01:45:25;;;;;;;3.25;0.20;;;;;;;5.89;100.00;101994.56;5047385;28;20055;-51
2023/03/03 01:47:55;;;;;;;3.25;0.20;;;;;;;5.83;100.00;101995.03;5044834;28;20035;-48
2023/03/03 01:50:42;;;;;;;0.40;0.20;;;;;;;5.73;100.00;101994.09;5046730;28;20036;-50
2023/03/03 01:53:14;;;;;;;1.05;0.40;;;;;;;5.69;100.00;101989.09;5046692;28;20045;-48
2023/03/03 01:55:41;;;;;;;0.85;0.38;;;;;;;5.73;100.00;101996.72;5046092;28;20073;-52
2023/03/03 01:58:27;;;;;;;2.40;0.30;;;;;;;5.75;100.00;101992.19;5033615;28;20031;-50
2023/03/03 02:01:00;;;;;;;0.32;0.15;;;;;;;5.69;100.00;101994.34;5044791;28;20375;-54
2023/03/03 02:03:26;;;;;;;1.90;0.63;;;;;;;5.66;100.00;101991.97;5046658;28;20029;-48
2023/03/03 02:05:56;;;;;;;1.63;0.35;;;;;;;5.69;100.00;101999.63;5045931;28;20036;-51
2023/03/03 02:08:30;;;;;;;2.75;0.13;;;;;;;5.74;100.00;101995.78;5042680;28;20381;-51
2023/03/03 02:10:56;;;;;;;0.45;0.35;;;;;;;5.80;100.00;102001.38;5048243;28;20033;-51
2023/03/03 02:13:22;;;;;;;0.80;0.20;;;;;;;5.77;100.00;101999.00;5048203;28;20087;-53
2023/03/03 02:15:47;;;;;;;3.60;0.47;;;;;;;5.84;100.00;102010.72;5047563;28;20036;-49
2023/03/03 02:18:15;;;;;;;0.73;0.22;;;;;;;5.79;100.00;102004.16;5049084;28;20409;-49
2023/03/03 02:21:08;;;;;;;6.75;1.77;;;;;;;5.79;100.00;101997.09;5047948;28;20496;-54
2023/03/03 02:23:38;;;;;;;0.65;0.25;;;;;;;5.89;100.00;102005.94;5035241;28;20044;-51
2023/03/03 02:26:11;;;;;;;0.63;0.50;;;;;;;5.98;100.00;102008.81;5050177;28;20099;-50
2023/03/03 02:28:38;;;;;;;0.73;0.40;;;;;;;5.99;100.00;102006.06;5048614;28;20068;-52
2023/03/03 02:31:16;;;;;;;3.25;0.40;;;;;;;5.92;100.00;102012.75;5041648;28;20051;-53
2023/03/03 02:33:44;;;;;;;1.63;0.90;;;;;;;6.00;100.00;102006.91;5053234;28;20032;-50
2023/03/03 02:36:18;;;;;;;1.10;0.25;;;;;;;5.99;100.00;102005.22;5047432;28;20433;-52
2023/03/03 02:39:08;;;;;;;1.25;0.95;;;;;;;6.05;100.00;102005.56;5047660;28;20084;-52
2023/03/03 02:41:43;;;;;;;0.35;0.28;;;;;;;5.96;100.00;102001.03;5044648;28;20502;-52
2023/03/03 02:44:12;;;;;;;1.45;0.20;;;;;;;6.03;100.00;102004.00;5056473;28;20562;-53
2023/03/03 02:46:40;;;;;;;5.43;1.38;;;;;;;6.01;100.00;102013.81;5044421;28;20025;-50
2023/03/03 02:49:07;;;;;;;3.58;0.45;;;;;;;5.88;100.00;102006.03;5048139;28;20032;-54
2023/03/03 02:51:33;;;;;;;7.05;2.15;;;;;;;5.81;100.00;102008.34;5046664;28;20095;-50
2023/03/03 02:53:58;;;;;;;3.50;0.82;;;;;;;5.86;100.00;102008.81;5054170;28;21339;-54
2023/03/03 02:56:23;;;;;;;1.90;0.70;;;;;;;5.95;100.00;102017.78;5045115;28;20083;-50
2023/03/03 02:58:49;;;;;;;0.55;0.20;;;;;;;5.97;100.00;102013.25;5052057;28;20036;-52
2023/03/03 03:01:14;;;;;;;6.15;1.17;;;;;;;5.88;100.00;102006.03;5046056;28;20389;-54
2023/03/03 03:03:40;;;;;;;1.33;0.65;;;;;;;5.91;100.00;102013.69;5036753;28;20056;-50
2023/03/03 03:06:06;;;;;;;0.82;0.65;;;;;;;5.95;100.00;102015.16;5047723;28;20148;-53
2023/03/03 03:08:31;;;;;;;0.77;0.52;;;;;;;5.96;100.00;102010.72;5048494;28;20108;-50
2023/03/03 03:10:57;;;;;;;2.05;0.40;;;;;;;6.02;100.00;102011.06;5048373;28;20502;-54
2023/03/03 03:13:23;;;;;;;0.73;0.52;;;;;;;6.07;100.00;102018.63;5049304;28;20608;-52
2023/03/03 03:15:48;;;;;;;3.13;0.80;;;;;;;6.03;100.00;102014.53;5051096;28;20024;-52
2023/03/03 03:18:15;;;;;;;2.40;0.70;;;;;;;6.07;100.00;102008.06;5052555;28;20028;-51
2023/03/03 03:20:41;;;;;;;0.80;0.80;;;;;;;6.04;100.00;102008.31;5049654;28;20029;-54
2023/03/03 03:23:07;;;;;;;6.60;0.80;;;;;;;6.05;100.00;102012.63;5051327;28;20044;-51
2023/03/03 03:25:32;;;;;;;1.67;0.80;;;;;;;6.06;100.00;102009.03;5038087;28;20037;-52
2023/03/03 03:27:58;;;;;;;0.70;0.28;;;;;;;5.98;100.00;102014.06;5051728;28;20548;-49
2023/03/03 03:30:23;;;;;;;1.65;0.63;;;;;;;5.88;100.00;102006.88;5052394;28;20060;-50
2023/03/03 03:32:49;;;;;;;4.57;0.73;;;;;;;6.06;100.00;102006.38;5045095;28;20471;-54
2023/03/03 03:35:16;;;;;;;0.93;0.52;;;;;;;6.16;100.00;102002.03;5053060;28;20029;-54
2023/03/03 03:37:41;;;;;;;0.73;0.40;;;;;;;6.20;100.00;102008.75;5050732;28;20025;-53
2023/03/03 03:40:07;;;;;;;3.42;1.17;;;;;;;6.26;100.00;102008.25;5052593;28;20035;-54
2023/03/03 03:42:32;;;;;;;0.45;0.45;;;;;;;6.31;100.00;102013.97;5046411;28;20044;-48
2023/03/03 03:44:58;;;;;;;2.47;0.90;;;;;;;6.27;100.00;102003.81;5045758;28;20414;-50
2023/03/03 03:47:23;;;;;;;1.65;0.47;;;;;;;6.28;100.00;102010.75;5048454;28;20032;-50
2023/03/03 03:49:48;;;;;;;3.13;1.33;;;;;;;6.29;100.00;102007.16;5057423;28;20083;-53
2023/03/03 03:52:14;;;;;;;1.30;0.73;;;;;;;6.24;100.00;102002.25;5054278;28;20454;-48
2023/03/03 03:54:39;;;;;;;3.03;0.47;;;;;;;6.25;100.00;102001.31;5044295;28;20385;-48
2023/03/03 03:57:05;;;;;;;1.05;0.80;;;;;;;6.28;100.00;102006.31;5046725;28;20032;-50
2023/03/03 03:59:30;;;;;;;0.95;0.60;;;;;;;6.19;100.00;102003.59;5044092;28;20035;-54
2023/03/03 04:01:56;;;;;;;1.67;1.27;;;;;;;6.11;100.00;102002.41;5045491;28;20037;-54
2023/03/03 04:04:21;;;;;;;6.70;0.60;;;;;;;6.15;100.00;102004.81;5062462;28;20028;-51
2023/03/03 04:06:48;;;;;;;2.15;0.55;;;;;;;6.05;100.00;102005.56;5044127;28;20026;-55
2023/03/03 04:09:13;;;;;;;1.20;0.50;;;;;;;6.02;100.00;102016.34;5049431;28;20025;-52
2023/03/03 04:11:38;;;;;;;0.73;0.40;;;;;;;5.94;100.00;102012.63;5042952;28;20038;-55
2023/03/03 04:14:04;;;;;;;0.60;0.52;;;;;;;5.87;100.00;102007.84;5047448;28;20072;-52
2023/03/03 04:16:29;;;;;;;2.10;0.75;;;;;;;5.96;100.00;102014.19;5046195;28;20135;-49
2023/03/03 04:18:54;;;;;;;2.20;0.88;;;;;;;6.07;100.00;102008.91;5048085;28;20025;-54
2023/03/03 04:21:20;;;;;;;3.08;0.70;;;;;;;6.11;100.00;102009.50;5048084;28;20083;-51
2023/03/03 04:23:45;;;;;;;2.13;0.63;;;;;;;6.14;100.00;102011.88;5041066;28;20161;-50
2023/03/03 04:26:11;;;;;;;2.75;0.52;;;;;;;6.22;100.00;102009.47;5044027;28;20035;-50
2023/03/03 04:28:36;;;;;;;2.75;0.60;;;;;;;6.21;100.00;102013.03;5045639;28;20029;-49
2023/03/03 04:31:02;;;;;;;0.80;0.80;;;;;;;6.16;100.00;102011.75;5046772;28;20108;-51
2023/03/03 04:33:27;;;;;;;0.70;0.40;;;;;;;6.07;100.00;102014.19;5054080;28;20029;-51
2023/03/03 04:35:52;;;;;;;0.82;0.80;;;;;;;5.96;100.00;102010.72;5049235;28;20039;-54
2023/03/03 04:38:18;;;;;;;2.50;0.82;;;;;;;5.91;100.00;102013.69;5050795;28;20033;-52
2023/03/03 04:40:43;;;;;;;0.85;0.47;;;;;;;5.95;100.00;102016.97;5051308;28;20053;-51
2023/03/03 04:43:09;;;;;;;0.22;0.20;;;;;;;5.95;100.00;102014.31;5046366;28;20206;-51
2023/03/03 04:45:35;;;;;;;1.30;0.88;;;;;;;5.95;100.00;102015.16;5045835;28;20049;-51
2023/03/03 04:48:00;;;;;;;3.20;0.57;;;;;;;5.93;100.00;102026.75;5043710;28;20044;-50
2023/03/03 04:50:26;;;;;;;0.65;0.20;;;;;;;5.88;100.00;102014.78;5044341;28;20052;-50
2023/03/03 04:52:51;;;;;;;1.75;0.40;;;;;;;5.89;100.00;102010.38;5041843;28;20040;-52
2023/03/03 04:55:17;;;;;;;1.90;0.68;;;;;;;5.88;100.00;102014.78;5038872;28;20295;-49
2023/03/03 04:57:42;;;;;;;0.70;0.52;;;;;;;5.88;100.00;102014.78;5043980;28;20374;-51
2023/03/03 05:00:11;;;;;;;2.25;0.40;;;;;;;5.86;100.00;102011.44;5043047;28;20067;-51
2023/03/03 05:02:38;;;;;;;0.65;0.40;;;;;;;5.81;100.00;102016.25;5039093;28;20082;-49
2023/03/03 05:05:03;;;;;;;2.17;0.32;;;;;;;5.75;100.00;102008.81;5044380;28;20037;-53
2023/03/03 05:07:29;;;;;;;3.50;0.38;;;;;;;5.73;100.00;102008.13;5044560;28;20033;-51
2023/03/03 05:09:54;;;;;;;1.55;0.45;;;;;;;5.75;100.00;102013.25;5047843;28;20025;-54
2023/03/03 05:12:20;;;;;;;4.63;0.28;;;;;;;5.68;100.00;102016.38;5043531;28;20029;-50
2023/03/03 05:14:45;;;;;;;1.42;0.43;;;;;;;5.74;100.00;102020.31;5050582;28;20037;-49
2023/03/03 05:17:10;;;;;;;1.35;0.63;;;;;;;5.75;100.00;102023.78;5041164;28;20103;-51
2023/03/03 05:19:36;;;;;;;1.60;0.43;;;;;;;5.79;100.00;102014.69;5044485;28;20039;-49
2023/03/03 05:22:01;;;;;;;0.28;0.13;;;;;;;5.78;100.00;102019.13;5040479;28;20791;-49
2023/03/03 05:24:26;;;;;;;0.75;0.20;;;;;;;5.83;100.00;102016.09;5035676;28;20543;-52
2023/03/03 05:26:52;;;;;;;2.28;0.85;;;;;;;5.86;100.00;102016.72;5044758;28;20029;-53
2023/03/03 05:29:18;;;;;;;0.98;0.20;;;;;;;5.87;100.00;102022.81;5045614;28;20498;-53
2023/03/03 05:31:43;;;;;;;1.23;0.30;;;;;;;5.91;100.00;102018.94;5043199;28;20039;-50
2023/03/03 05:34:09;;;;;;;0.20;0.10;;;;;;;6.00;100.00;102020.88;5049629;28;20048;-50
2023/03/03 05:36:34;;;;;;;1.25;0.40;;;;;;;6.08;100.00;102015.00;5046518;28;20037;-52
2023/03/03 05:38:59;;;;;;;3.38;0.30;;;;;;;6.13;100.00;102018.09;5047280;28;20025;-49
2023/03/03 05:41:25;;;;;;;0.68;0.47;;;;;;;6.13;100.00;102018.09;5050535;28;20569;-53
2023/03/03 05:43:50;;;;;;;0.28;0.20;;;;;;;6.11;100.00;102022.66;5044253;28;20091;-50
2023/03/03 05:46:16;;;;;;;0.75;0.20;;;;;;;6.07;100.00;102019.44;5055488;28;20052;-48
2023/03/03 05:48:41;;;;;;;2.83;0.68;;;;;;;6.04;100.00;102011.78;5052854;28;20037;-50
2023/03/03 05:51:07;;;;;;;0.75;0.50;;;;;;;6.06;100.00;102017.75;5051977;28;20024;-50
2023/03/03 05:53:33;;;;;;;0.75;0.30;;;;;;;6.03;100.00;102017.19;5051171;28;20039;-54
2023/03/03 05:55:58;;;;;;;2.42;0.50;;;;;;;6.02;100.00;102012.88;5043185;28;20032;-51
2023/03/03 05:58:24;;;;;;;16.92;0.60;;;;;;;5.97;100.00;102018.50;5039832;28;20546;-54
2023/03/03 06:00:49;;;;;;;1.45;0.25;;;;;;;5.97;100.00;102013.25;5045480;28;20055;-48
2023/03/03 06:03:15;;;;;;;0.40;0.40;;;;;;;5.93;100.00;102009.13;5045080;28;20123;-50
2023/03/03 06:05:41;;;;;;;0.20;0.17;;;;;;;5.86;100.00;102010.59;5040094;28;20044;-49
2023/03/03 06:08:06;;;;;;;0.47;0.32;;;;;;;5.89;100.00;102007.72;5046837;28;20040;-50
2023/03/03 06:10:32;;;;;;;2.28;0.70;;;;;;;5.93;100.00;102010.94;5044484;28;20029;-53
2023/03/03 06:12:57;;;;;;;0.40;0.20;;;;;;;5.88;100.00;102004.25;5042620;28;20143;-51
2023/03/03 06:15:23;;;;;;;0.63;0.63;;;;;;;5.88;100.00;102006.88;5041333;28;20062;-54
2023/03/03 06:17:48;;;;;;;2.63;1.63;;;;;;;5.97;100.00;102009.78;5042833;28;20021;-48
2023/03/03 06:20:14;;;;;;;2.15;0.52;;;;;;;6.06;100.00;102014.28;5046622;28;20055;-51
2023/03/03 06:22:39;;;;;;;0.60;0.25;;;;;;;6.08;100.00;102010.56;5041370;28;20378;-50
2023/03/03 06:25:05;;;;;;;2.65;1.27;;;;;;;6.11;100.00;102009.50;5044359;28;20067;-53
2023/03/03 06:27:30;;;;;;;1.40;0.45;;;;;;;6.11;100.00;102014.75;5044289;28;20036;-52
2023/03/03 06:29:55;;;;;;;2.15;0.55;;;;;;;6.20;100.00;102019.28;5047675;28;20082;-54
2023/03/03 06:32:21;;;;;;;3.22;0.50;;;;;;;6.21;100.00;102020.13;5043237;28;20040;-50
2023/03/03 06:34:46;;;;;;;1.88;0.35;;;;;;;6.17;100.00;102019.53;5045687;28;20017;-56
2023/03/03 06:37:11;;;;;;;0.65;0.40;;;;;;;6.11;100.00;102025.28;5046424;28;20079;-53
2023/03/03 06:39:37;;;;;;;3.38;0.40;;;;;;;6.13;100.00;102028.63;5045128;28;20021;-53
2023/03/03 06:42:02;;;;;;;1.35;0.43;;;;;;;6.13;100.00;102028.63;5045894;28;20079;-52
2023/03/03 06:44:27;;;;;;;1.45;0.30;;;;;;;6.14;100.00;102022.41;5045171;28;20045;-56
2023/03/03 06:46:56;;;;;;;2.95;0.30;;;;;;;6.09;100.00;102022.78;5042448;28;20039;-54
2023/03/03 06:49:21;;;;;;;0.65;0.20;;;;;;;6.16;100.00;102024.91;5052538;28;20432;-55
2023/03/03 06:51:46;;;;;;;1.40;1.30;;;;;;;6.23;100.00;102023.47;5048815;28;20029;-54
2023/03/03 06:54:17;;;;;;;1.52;0.25;;;;;;;6.27;100.00;102030.16;5041875;28;20375;-54
2023/03/03 06:56:44;;;;;;;3.90;0.55;;;;;;;6.27;100.00;102031.00;5046652;28;20569;-51
2023/03/03 06:59:18;;;;;;;6.50;0.65;;;;;;;6.26;100.00;102028.47;5046858;28;20033;-53
2023/03/03 07:01:45;;;;;;;1.58;0.32;;;;;;;6.29;100.00;102036.13;5045827;28;20447;-51
2023/03/03 07:04:32;;;;;;;0.52;0.45;;;;;;;6.29;100.00;102036.97;5049775;28;20023;-53
2023/03/03 07:07:07;;;;;;;1.17;0.43;;;;;;;6.26;100.00;102044.28;5043099;28;20037;-51
2023/03/03 07:09:32;;;;;;;0.47;0.47;;;;;;;6.30;100.00;102046.56;5051175;28;20048;-55
2023/03/03 07:12:05;;;;;;;1.20;0.30;;;;;;;6.22;100.00;102042.84;5051017;28;20041;-50
2023/03/03 07:14:32;;;;;;;2.47;0.25;;;;;;;6.12;100.00;102042.78;5047813;28;20124;-50
2023/03/03 07:17:04;;;;;;;3.88;1.00;;;;;;;6.13;100.00;102047.06;5050893;28;20029;-54
2023/03/03 07:19:33;;;;;;;0.88;0.13;;;;;;;6.23;100.00;102048.00;5049840;28;20036;-50
2023/03/03 07:22:11;;;;;;;1.08;0.10;;;;;;;6.28;100.00;102053.75;5053975;28;20540;-53
2023/03/03 07:24:36;;;;;;;2.55;0.28;;;;;;;6.32;100.00;102051.69;5043806;28;20029;-50
2023/03/03 07:27:04;;;;;;;0.93;0.10;;;;;;;6.38;100.00;102056.47;5042864;28;20069;-54
2023/03/03 07:29:30;;;;;;;1.40;0.30;;;;;;;6.45;100.00;102062.88;5048780;28;20437;-54
2023/03/03 07:31:58;;;;;;;2.28;0.38;;;;;;;6.53;100.00;102062.25;5049628;28;20079;-53
2023/03/03 07:34:35;;;;;;;2.78;0.40;;;;;;;6.52;100.00;102065.88;5046594;28;20033;-51
2023/03/03 07:37:08;;;;;;;1.13;0.63;;;;;;;6.54;100.00;102069.22;5044117;28;20036;-51
2023/03/03 07:39:36;;;;;;;0.50;0.50;;;;;;;6.58;100.00;102070.63;5047688;28;20103;-50
2023/03/03 07:42:01;;;;;;;0.50;0.50;;;;;;;6.59;100.00;102067.03;5048766;28;20135;-53
2023/03/03 07:44:34;;;;;;;2.78;0.60;;;;;;;6.44;100.00;102074.41;5042642;28;20048;-51
2023/03/03 07:47:26;;;;;;;2.53;0.70;;;;;;;6.51;100.00;102080.03;5045276;28;20238;-53
2023/03/03 07:50:15;;;;;;;1.88;0.77;;;;;;;6.48;100.00;102074.97;5043018;28;20090;-54
2023/03/03 07:52:43;;;;;;;2.42;0.50;;;;;;;6.48;100.00;102074.97;5047195;28;20120;-50
2023/03/03 07:55:40;;;;;;;2.00;1.15;;;;;;;6.61;100.00;102080.94;5043404;28;20033;-54
2023/03/03 07:58:11;;;;;;;3.90;0.85;;;;;;;6.62;100.00;102090.50;5042366;28;20342;-50
2023/03/03 08:01:15;;;;;;;0.50;0.20;;;;;;;6.68;100.00;102090.00;5042596;28;20068;-50
2023/03/03 08:03:44;;;;;;;4.32;1.05;;;;;;;6.74;100.00;102096.59;5047020;28;20041;-51
2023/03/03 08:06:28;;;;;;;1.80;1.10;;;;;;;6.59;100.00;102098.69;5048479;28;20043;-52
2023/03/03 08:08:57;;;;;;;0.68;0.47;;;;;;;6.68;100.00;102092.63;5050833;28;20025;-55
2023/03/03 08:11:24;;;;;;;3.53;0.52;;;;;;;6.69;100.00;102099.59;5045738;28;20382;-55
2023/03/03 08:13:49;;;;;;;3.05;0.28;;;;;;;6.78;100.00;102103.25;5044516;28;20024;-56
2023/03/03 08:16:14;;;;;;;2.80;0.68;;;;;;;6.77;100.00;102110.34;5042968;28;20052;-54
2023/03/03 08:18:52;;;;;;;2.00;0.22;;;;;;;6.86;100.00;102100.81;5042806;28;20068;-51
2023/03/03 08:21:22;;;;;;;0.40;0.40;;;;;;;6.90;100.00;102107.53;5043431;28;20451;-53
2023/03/03 08:23:50;;;;;;;5.03;0.30;;;;;;;6.91;100.00;102109.19;5040642;28;20037;-50
2023/03/03 08:26:16;;;;;;;1.05;0.38;;;;;;;7.02;100.00;102116.19;5045740;28;20025;-51
2023/03/03 08:28:42;;;;;;;1.15;0.28;;;;;;;7.05;100.00;102115.97;5044861;28;20068;-52
2023/03/03 08:31:08;;;;;;;5.82;0.55;;;;;;;7.01;100.00;102108.44;5041428;28;20041;-52
2023/03/03 08:33:33;;;;;;;3.03;0.22;;;;;;;7.08;100.00;102115.72;5041815;28;20151;-54
2023/03/03 08:35:58;;;;;;;1.98;0.32;;;;;;;7.12;100.00;102109.19;5044993;28;20025;-52
2023/03/03 08:38:24;;;;;;;2.08;0.57;;;;;;;7.15;100.00;102116.03;5041304;28;20028;-52
2023/03/03 08:40:50;;;;;;;4.72;1.48;;;;;;;7.10;100.00;102116.44;5042994;28;20032;-54
2023/03/03 08:43:17;;;;;;;2.45;0.80;;;;;;;7.16;100.00;102123.81;5044873;28;20485;-54
2023/03/03 08:45:47;;;;;;;1.98;0.15;;;;;;;7.25;100.00;102119.56;5045160;28;20064;-55
2023/03/03 08:48:14;;;;;;;0.50;0.30;;;;;;;7.28;100.00;102121.97;5047618;28;20419;-51
2023/03/03 08:50:40;;;;;;;1.95;0.47;;;;;;;7.31;100.00;102115.59;5045628;28;20031;-53
2023/03/03 08:53:06;;;;;;;0.63;0.10;;;;;;;7.30;100.00;102114.72;5045985;28;20032;-54
2023/03/03 08:55:31;;;;;;;0.35;0.32;;;;;;;7.25;100.00;102121.38;5040239;28;20061;-52
2023/03/03 08:57:57;;;;;;;2.80;0.50;;;;;;;7.30;100.00;102114.72;5048005;28;20029;-53
2023/03/03 09:00:22;;;;;;;4.25;0.73;;;;;;;7.30;100.00;102120.00;5045509;28;20078;-53
2023/03/03 09:02:49;;;;;;;0.77;0.20;;;;;;;7.33;100.00;102114.50;5047019;28;20382;-55
2023/03/03 09:05:16;;;;;;;0.38;0.20;;;;;;;7.43;100.00;102120.66;5047211;28;20033;-55
2023/03/03 09:07:43;;;;;;;0.52;0.08;;;;;;;7.36;100.00;102116.03;5044778;28;20041;-52
2023/03/03 09:10:10;;;;;;;1.13;0.00;;;;;;;7.37;100.00;102126.44;5041912;28;20474;-54
2023/03/03 09:12:40;;;;;;;0.77;0.25;;;;;;;7.29;100.00;102130.72;5046099;28;20021;-53
2023/03/03 09:15:17;;;;;;;12.70;0.50;;;;;;;7.32;100.00;102128.63;5046407;28;20040;-51
2023/03/03 09:17:43;;;;;;;3.53;0.63;;;;;;;7.37;100.00;102130.91;5043936;28;20040;-51
2023/03/03 09:20:23;;;;;;;1.65;0.57;;;;;;;7.48;100.00;102133.44;5044129;28;20025;-53
2023/03/03 09:22:49;;;;;;;0.75;0.45;;;;;;;7.46;100.00;102134.53;5042738;28;20393;-54
2023/03/03 09:25:30;;;;;;;7.47;0.75;;;;;;;7.40;100.00;102133.28;5043351;28;20035;-52
2023/03/03 09:27:56;;;;;;;1.30;0.28;;;;;;;7.41;100.00;102138.44;5043301;28;20029;-52
2023/03/03 09:30:24;;;;;;;1.33;0.40;;;;;;;7.35;100.00;102138.09;5044109;28;20033;-51
2023/03/03 09:32:50;;;;;;;0.08;0.08;;;;;;;7.37;100.00;102141.44;5043600;28;20052;-52
2023/03/03 09:35:36;;;;;;;2.67;0.20;;;;;;;7.35;100.00;102141.56;5039408;28;20057;-55
2023/03/03 09:38:23;;;;;;;0.50;0.47;;;;;;;7.46;100.00;102139.81;5039999;28;20021;-51
2023/03/03 09:41:02;;;;;;;3.33;0.77;;;;;;;7.52;100.00;102139.31;5043040;28;20036;-54
2023/03/03 09:43:41;;;;;;;4.07;0.52;;;;;;;7.55;100.00;102139.06;5043691;28;20037;-55
2023/03/03 09:46:33;;;;;;;2.70;0.20;;;;;;;7.59;100.00;102145.72;5042153;28;20069;-50
2023/03/03 09:49:06;;;;;;;2.25;0.38;;;;;;;7.60;100.00;102153.53;5046349;28;20060;-55
2023/03/03 09:51:31;;;;;;;1.95;0.30;;;;;;;7.61;100.00;102155.19;5046347;28;20029;-52
2023/03/03 09:54:33;;;;;;;0.85;0.10;;;;;;;7.64;100.00;102154.97;5042359;28;20126;-54
2023/03/03 09:57:14;;;;;;;3.35;0.28;;;;;;;7.61;100.00;102147.28;5048657;28;20055;-51
2023/03/03 10:00:08;;;;;;;0.20;0.13;;;;;;;7.60;100.00;102152.69;5048267;28;20032;-52
2023/03/03 10:03:05;;;;;;;1.40;0.20;;;;;;;7.61;100.00;102155.19;5044254;28;20044;-54
2023/03/03 10:05:49;;;;;;;0.25;0.20;;;;;;;7.60;100.00;102150.88;5043564;28;20064;-50
2023/03/03 10:08:36;;;;;;;0.45;0.40;;;;;;;7.50;100.00;102150.00;5040630;28;20067;-54
2023/03/03 10:11:11;;;;;;;1.13;0.40;;;;;;;7.38;100.00;102164.22;5045662;28;20029;-51
2023/03/03 10:13:59;;;;;;;1.35;0.43;;;;;;;7.38;100.00;102158.94;5054429;28;20028;-51
2023/03/03 10:16:48;;;;;;;1.35;0.70;;;;;;;7.37;100.00;102159.91;5048756;28;20029;-52
2023/03/03 10:19:25;;;;;;;3.58;0.57;;;;;;;7.17;100.00;102162.41;5047931;28;20052;-52
2023/03/03 10:22:04;;;;;;;3.15;0.63;;;;;;;7.13;100.00;102166.28;5042643;28;20036;-49
2023/03/03 10:24:40;;;;;;;1.65;0.60;;;;;;;7.27;100.00;102164.28;5038739;28;20041;-51
2023/03/03 10:27:17;;;;;;;4.85;1.65;;;;;;;7.30;100.00;102166.66;5044953;28;20231;-50
2023/03/03 10:30:01;;;;;;;0.85;0.47;;;;;;;7.40;100.00;102173.69;5045475;28;20025;-48
2023/03/03 10:32:36;;;;;;;8.77;0.93;;;;;;;7.57;100.00;102180.19;5047221;28;20029;-52
2023/03/03 10:35:32;;;;;;;4.40;1.02;;;;;;;7.79;100.00;102173.06;5045228;28;20510;-48
2023/03/03 10:38:01;;;;;;;4.47;0.60;;;;;;;7.91;100.00;102173.84;5049732;28;20025;-53
2023/03/03 10:40:44;;;;;;;1.00;0.73;;;;;;;8.04;100.00;102175.28;5047908;28;20098;-50
2023/03/03 10:43:22;;;;;;;5.28;1.17;;;;;;;7.79;100.00;102173.06;5047305;28;20083;-50
2023/03/03 10:46:41;;;;;;;0.70;0.57;;;;;;;7.65;100.00;102172.47;5045159;28;20513;-51
2023/03/03 10:49:30;;;;;;;1.30;0.57;;;;;;;7.47;100.00;102173.19;5004422;28;20026;-49
2023/03/03 10:52:06;;;;;;;0.80;0.75;;;;;;;7.57;100.00;102172.28;5045403;28;20383;-50
2023/03/03 10:54:42;;;;;;;2.85;0.60;;;;;;;7.60;100.00;102174.66;5035967;28;20036;-50
2023/03/03 10:57:36;;;;;;;1.38;0.73;;;;;;;7.69;100.00;102172.19;5048847;28;20425;-50
2023/03/03 11:00:26;;;;;;;0.73;0.68;;;;;;;7.97;100.00;102176.78;5045491;28;20033;-47
2023/03/03 11:03:04;;;;;;;1.05;0.70;;;;;;;8.09;100.00;102174.88;5049686;28;20049;-50
2023/03/03 11:05:49;;;;;;;0.95;0.40;;;;;;;8.18;100.00;102167.97;5048250;28;20029;-52
2023/03/03 11:08:47;;;;;;;2.10;0.63;;;;;;;8.16;100.00;102175.16;5042357;28;20033;-49
2023/03/03 11:11:28;;;;;;;2.33;1.60;;;;;;;8.00;100.00;102173.91;5043709;28;20037;-50
2023/03/03 11:14:35;;;;;;;1.15;0.63;;;;;;;7.96;100.00;102177.75;5049679;28;20109;-52
2023/03/03 11:17:09;;;;;;;3.33;0.60;;;;;;;8.05;100.00;102179.63;5046107;28;20033;-54
2023/03/03 11:19:52;;;;;;;1.23;0.40;;;;;;;8.15;100.00;102184.09;5045525;28;20032;-51
2023/03/03 11:22:32;;;;;;;2.15;0.52;;;;;;;8.08;100.00;102183.78;5050096;28;20056;-52
2023/03/03 11:25:03;;;;;;;3.45;0.38;;;;;;;8.13;100.00;102180.72;5039588;28;20041;-52
2023/03/03 11:27:34;;;;;;;0.73;0.40;;;;;;;8.28;100.00;102182.88;5051340;28;20035;-52
2023/03/03 11:30:28;;;;;;;0.20;0.20;;;;;;;8.47;100.00;102181.31;5053604;28;20040;-52
2023/03/03 11:33:16;;;;;;;0.52;0.35;;;;;;;8.34;100.00;102186.81;5048647;28;20044;-51
2023/03/03 11:36:09;;;;;;;2.20;0.00;;;;;;;8.39;100.00;102183.72;5055229;28;20334;-51
2023/03/03 11:38:51;;;;;;;0.50;0.22;;;;;;;8.56;100.00;102182.28;5051101;28;20128;-53
2023/03/03 11:41:39;;;;;;;0.65;0.38;;;;;;;8.64;100.00;102185.09;5046261;28;20024;-53